createdAt,value
2019-04-06T00:02:43.140Z,17.87
2019-04-06T00:07:38.997Z,18.67
2019-04-06T00:12:34.673Z,18.57
2019-04-06T00:17:31.210Z,18.87
2019-04-06T00:22:27.001Z,19.10
2019-04-06T00:27:24.566Z,19.90
2019-04-06T00:32:25.425Z,19.23
2019-04-06T00:37:21.186Z,18.90
2019-04-06T00:42:17.045Z,18.13
2019-04-06T00:47:12.733Z,18.10
2019-04-06T00:52:08.577Z,18.10
2019-04-06T00:57:04.367Z,18.00
2019-04-06T01:02:00.347Z,16.83
2019-04-06T01:06:56.039Z,16.83
2019-04-06T01:11:51.913Z,18.67
2019-04-06T01:16:47.590Z,17.63
2019-04-06T01:21:44.003Z,17.87
2019-04-06T01:26:39.695Z,17.37
2019-04-06T01:31:35.772Z,16.07
2019-04-06T01:36:31.463Z,16.07
2019-04-06T01:41:27.391Z,17.10
2019-04-06T01:46:23.072Z,16.73
2019-04-06T01:51:18.964Z,16.37
2019-04-06T01:56:18.745Z,17.13
2019-04-06T02:01:17.226Z,17.07
2019-04-06T02:06:12.911Z,17.70
2019-04-06T02:11:08.763Z,15.67
2019-04-06T02:16:04.545Z,17.63
2019-04-06T02:21:00.719Z,17.53
2019-04-06T02:25:57.307Z,17.20
2019-04-06T02:31:03.942Z,17.57
2019-04-06T02:36:13.467Z,17.27
2019-04-06T02:41:27.763Z,17.83
2019-04-06T02:46:23.450Z,17.37
2019-04-06T02:51:19.567Z,17.63
2019-04-06T02:56:15.261Z,18.37
2019-04-06T03:01:11.613Z,18.10
2019-04-06T03:06:07.641Z,17.40
2019-04-06T03:11:03.689Z,18.57
2019-04-06T03:15:59.567Z,17.40
2019-04-06T03:20:55.447Z,17.37
2019-04-06T03:25:51.136Z,17.37
2019-04-06T03:30:47.620Z,18.10
2019-04-06T03:35:47.613Z,18.23
2019-04-06T03:40:41.322Z,17.37
2019-04-06T03:45:37.740Z,17.93
2019-04-06T03:50:33.446Z,16.93
2019-04-06T03:55:29.921Z,16.67
2019-04-06T04:00:25.623Z,16.67
2019-04-06T04:05:21.718Z,16.53
2019-04-06T04:10:19.377Z,14.93
2019-04-06T04:15:16.021Z,15.33
2019-04-06T04:20:11.838Z,15.53
2019-04-06T04:25:08.508Z,15.77
2019-04-06T04:30:06.012Z,15.77
2019-04-06T04:35:03.104Z,15.77
2019-04-06T04:39:58.842Z,17.07
2019-04-06T04:44:54.807Z,15.93
2019-04-06T04:49:50.543Z,16.67
2019-04-06T04:54:46.560Z,17.97
2019-04-06T04:59:42.238Z,18.07
2019-04-06T05:04:38.001Z,16.77
2019-04-06T05:09:33.681Z,17.80
2019-04-06T05:14:48.140Z,17.57
2019-04-06T05:19:43.817Z,17.70
2019-04-06T05:24:39.953Z,17.97
2019-04-06T05:29:35.645Z,16.50
2019-04-06T05:34:31.959Z,16.90
2019-04-06T05:39:27.883Z,16.30
2019-04-06T05:44:23.773Z,17.17
2019-04-06T05:49:19.444Z,17.73
2019-04-06T05:54:15.433Z,18.47
2019-04-06T05:59:11.433Z,19.33
2019-04-06T06:04:10.362Z,19.60
2019-04-06T06:09:05.528Z,20.60
2019-04-06T06:14:02.001Z,20.40
2019-04-06T06:18:57.830Z,20.37
2019-04-06T06:23:54.312Z,19.80
2019-04-06T06:28:50.075Z,20.23
2019-04-06T06:33:46.330Z,19.77
2019-04-06T06:38:42.969Z,19.63
2019-04-06T06:43:38.995Z,19.10
2019-04-06T06:48:34.723Z,18.10
2019-04-06T06:53:30.615Z,18.80
2019-04-06T06:58:26.341Z,18.10
2019-04-06T07:03:22.519Z,18.30
2019-04-06T07:08:18.273Z,19.33
2019-04-06T07:13:14.153Z,19.30
2019-04-06T07:18:09.852Z,17.90
2019-04-06T07:23:05.749Z,20.27
2019-04-06T07:28:01.434Z,20.30
2019-04-06T07:32:57.306Z,21.93
2019-04-06T07:37:53.086Z,21.83
2019-04-06T07:42:49.790Z,23.17
2019-04-06T07:47:45.555Z,23.23
2019-04-06T07:52:41.665Z,23.13
2019-04-06T07:57:37.577Z,21.57
2019-04-06T08:02:33.739Z,21.53
2019-04-06T08:07:30.025Z,19.07
2019-04-06T08:12:26.709Z,17.53
2019-04-06T08:17:22.448Z,18.80
2019-04-06T08:22:18.320Z,17.57
2019-04-06T08:27:13.977Z,17.83
2019-04-06T08:32:10.052Z,18.07
2019-04-06T08:37:05.755Z,17.80
2019-04-06T08:42:01.609Z,17.40
2019-04-06T08:46:57.315Z,16.57
2019-04-06T08:51:53.387Z,16.37
2019-04-06T08:56:49.067Z,16.52
2019-04-06T09:01:45.575Z,14.40
2019-04-06T09:06:41.245Z,14.05
2019-04-06T09:11:37.079Z,13.95
2019-04-06T09:16:32.771Z,11.75
2019-04-06T09:21:28.531Z,13.22
2019-04-06T09:26:24.471Z,12.43
2019-04-06T09:31:20.453Z,11.50
2019-04-06T09:36:16.132Z,12.05
2019-04-06T09:41:12.142Z,12.35
2019-04-06T09:46:21.591Z,11.15
2019-04-06T09:51:19.533Z,8.80
2019-04-06T09:56:20.307Z,9.38
2019-04-06T10:01:18.156Z,10.75
2019-04-06T10:06:34.553Z,11.63
2019-04-06T10:11:44.641Z,9.35
2019-04-06T10:16:58.223Z,9.00
2019-04-06T10:21:55.928Z,9.38
2019-04-06T10:26:56.346Z,8.78
2019-04-06T10:31:59.961Z,9.68
2019-04-06T10:37:12.697Z,9.53
2019-04-06T10:42:10.569Z,9.85
2019-04-06T10:47:11.396Z,9.90
2019-04-06T10:52:25.715Z,9.20
2019-04-06T10:57:38.264Z,9.45
2019-04-06T11:02:44.758Z,9.60
2019-04-06T11:07:43.229Z,9.18
2019-04-06T11:12:57.558Z,9.83
2019-04-06T11:18:10.412Z,9.60
2019-04-06T11:23:11.350Z,9.75
2019-04-06T11:28:09.715Z,8.95
2019-04-06T11:33:10.115Z,9.05
2019-04-06T11:38:13.797Z,8.90
2019-04-06T11:43:20.242Z,8.53
2019-04-06T11:48:34.516Z,9.88
2019-04-06T11:53:37.927Z,9.70
2019-04-06T11:58:44.899Z,12.80
2019-04-06T12:03:45.623Z,9.43
2019-04-06T12:08:43.407Z,9.35
2019-04-06T12:13:47.120Z,9.55
2019-04-06T12:18:57.148Z,8.50
2019-04-06T12:23:58.048Z,9.23
2019-04-06T12:29:04.861Z,8.55
2019-04-06T12:34:11.380Z,9.95
2019-04-06T12:39:11.602Z,9.60
2019-04-06T12:44:09.799Z,9.50
2019-04-06T12:49:10.335Z,8.68
2019-04-06T12:54:11.029Z,8.63
2019-04-06T12:59:27.847Z,8.63
2019-04-06T13:04:25.585Z,8.70
2019-04-06T13:09:26.295Z,9.53
2019-04-06T13:14:23.997Z,9.55
2019-04-06T13:19:25.199Z,9.35
2019-04-06T13:24:29.022Z,9.63
2019-04-06T13:29:32.445Z,9.80
2019-04-06T13:34:39.245Z,8.98
2019-04-06T13:40:03.235Z,9.90
2019-04-06T13:45:15.903Z,9.63
2019-04-06T13:50:16.112Z,11.33
2019-04-06T13:55:16.781Z,9.68
2019-04-06T14:00:32.137Z,9.28
2019-04-06T14:05:32.726Z,11.08
2019-04-06T14:10:48.179Z,7.92
2019-04-06T14:16:04.498Z,8.70
2019-04-06T14:21:18.761Z,8.70
2019-04-06T14:26:33.367Z,8.05
2019-04-06T14:31:47.397Z,8.20
2019-04-06T14:36:48.087Z,8.05
2019-04-06T14:41:57.745Z,7.70
2019-04-06T14:46:58.374Z,8.08
2019-04-06T14:52:14.383Z,8.55
2019-04-06T14:57:18.108Z,7.87
2019-04-06T15:02:18.612Z,8.40
2019-04-06T15:07:28.499Z,11.40
2019-04-06T15:12:32.114Z,8.00
2019-04-06T15:17:32.693Z,8.18
2019-04-06T15:22:39.242Z,6.90
2019-04-06T15:27:48.799Z,7.30
2019-04-06T15:33:01.455Z,6.90
2019-04-06T15:38:13.967Z,6.58
2019-04-06T15:43:14.536Z,7.20
2019-04-06T15:48:12.515Z,9.90
2019-04-06T15:53:19.806Z,7.80
2019-04-06T15:58:27.189Z,7.97
2019-04-06T16:03:27.451Z,7.65
2019-04-06T16:08:28.335Z,7.37
2019-04-06T16:13:29.171Z,8.18
2019-04-06T16:18:33.119Z,7.30
2019-04-06T16:23:37.029Z,7.28
2019-04-06T16:28:37.567Z,6.97
2019-04-06T16:33:51.806Z,7.50
2019-04-06T16:38:55.345Z,7.67
2019-04-06T16:43:56.049Z,7.05
2019-04-06T16:48:56.902Z,7.08
2019-04-06T16:54:06.849Z,7.37
2019-04-06T16:59:13.773Z,6.70
2019-04-06T17:04:13.999Z,6.87
2019-04-06T17:09:20.904Z,6.63
2019-04-06T17:14:21.381Z,6.73
2019-04-06T17:19:19.194Z,6.23
2019-04-06T17:24:31.707Z,7.90
2019-04-06T17:29:45.994Z,6.57
2019-04-06T17:34:54.869Z,6.37
2019-04-06T17:39:52.054Z,6.67
2019-04-06T17:44:49.885Z,6.27
2019-04-06T17:49:50.678Z,6.37
2019-04-06T17:55:00.726Z,7.17
2019-04-06T18:00:01.888Z,6.30
2019-04-06T18:05:16.189Z,5.73
2019-04-06T18:10:14.573Z,5.60
2019-04-06T18:15:10.912Z,7.27
2019-04-06T18:20:07.866Z,8.07
2019-04-06T18:25:04.625Z,6.50
2019-04-06T18:30:00.305Z,6.43
2019-04-06T18:34:56.406Z,7.60
2019-04-06T18:39:56.902Z,7.37
2019-04-06T18:44:53.215Z,6.60
2019-04-06T18:49:48.990Z,6.27
2019-04-06T18:54:45.144Z,6.00
2019-04-06T18:59:41.320Z,6.90
2019-04-06T19:04:37.485Z,7.10
2019-04-06T19:09:35.045Z,6.53
2019-04-06T19:14:31.589Z,6.50
2019-04-06T19:19:28.430Z,6.77
2019-04-06T19:24:24.697Z,6.17
2019-04-06T19:29:20.649Z,6.87
2019-04-06T19:34:17.006Z,6.37
2019-04-06T19:39:13.536Z,6.73
2019-04-06T19:44:10.157Z,7.30
2019-04-06T19:49:06.411Z,6.40
2019-04-06T19:54:04.657Z,5.60
2019-04-06T19:59:00.873Z,6.30
2019-04-06T20:03:56.622Z,43.17
2019-04-06T20:08:52.857Z,15.80
2019-04-06T20:13:49.365Z,6.47
2019-04-06T20:18:45.107Z,5.90
2019-04-06T20:23:41.317Z,7.83
2019-04-06T20:28:37.063Z,6.47
2019-04-06T20:33:33.176Z,8.00
2019-04-06T20:38:29.318Z,5.63
2019-04-06T20:43:25.214Z,5.90
2019-04-06T20:48:21.513Z,6.30
2019-04-06T20:53:17.729Z,6.57
2019-04-06T20:58:13.842Z,5.43
2019-04-06T21:03:10.832Z,6.67
2019-04-06T21:08:07.059Z,4.87
2019-04-06T21:13:03.323Z,5.30
2019-04-06T21:17:59.197Z,5.53
2019-04-06T21:22:55.256Z,5.17
2019-04-06T21:27:51.404Z,4.93
2019-04-06T21:32:48.017Z,5.43
2019-04-06T21:37:43.933Z,5.00
2019-04-06T21:42:39.855Z,5.27
2019-04-06T21:47:35.527Z,4.43
2019-04-06T21:52:31.923Z,4.30
2019-04-06T21:57:28.042Z,4.60
2019-04-06T22:02:24.185Z,4.77
2019-04-06T22:07:19.942Z,4.30
2019-04-06T22:12:16.307Z,4.40
2019-04-06T22:17:13.143Z,4.40
2019-04-06T22:22:09.300Z,4.70
2019-04-06T22:27:05.338Z,4.93
2019-04-06T22:32:02.269Z,4.30
2019-04-06T22:36:58.163Z,4.40
2019-04-06T22:41:54.843Z,4.73
2019-04-06T22:46:51.416Z,4.17
2019-04-06T22:51:47.465Z,4.37
2019-04-06T22:56:44.068Z,4.17
2019-04-06T23:01:40.909Z,4.37
2019-04-06T23:06:53.469Z,4.37
2019-04-06T23:11:49.218Z,4.50
2019-04-06T23:21:41.615Z,3.97
2019-04-06T23:26:37.613Z,4.10
2019-04-06T23:31:34.085Z,4.73
2019-04-06T23:36:30.410Z,4.67
2019-04-06T23:41:26.719Z,4.33
2019-04-06T23:46:22.470Z,4.40
2019-04-06T23:51:18.822Z,4.00
2019-04-06T23:56:14.906Z,4.27
